sensor_id;sensor_type;location;lat;lon;timestamp;P1;durP1;ratioP1;P2;durP2;ratioP2
21038;SDS011;10678;51.002;4.786;2022-12-28T00:02:15;8.33;;;3.10;;
21038;SDS011;10678;51.002;4.786;2022-12-28T00:04:41;7.40;;;3.03;;
21038;SDS011;10678;51.002;4.786;2022-12-28T00:07:07;10.43;;;2.77;;
21038;SDS011;10678;51.002;4.786;2022-12-28T00:09:33;8.57;;;2.40;;
21038;SDS011;10678;51.002;4.786;2022-12-28T00:11:58;9.83;;;2.83;;
21038;SDS011;10678;51.002;4.786;2022-12-28T00:14:24;5.80;;;2.70;;
21038;SDS011;10678;51.002;4.786;2022-12-28T00:16:49;9.50;;;2.23;;
21038;SDS011;10678;51.002;4.786;2022-12-28T00:19:15;6.33;;;2.43;;
21038;SDS011;10678;51.002;4.786;2022-12-28T00:21:41;9.00;;;2.70;;
21038;SDS011;10678;51.002;4.786;2022-12-28T00:24:10;6.73;;;2.20;;
21038;SDS011;10678;51.002;4.786;2022-12-28T00:26:43;9.10;;;2.37;;
21038;SDS011;10678;51.002;4.786;2022-12-28T00:29:08;9.03;;;2.37;;
21038;SDS011;10678;51.002;4.786;2022-12-28T00:31:35;7.57;;;2.13;;
21038;SDS011;10678;51.002;4.786;2022-12-28T00:34:01;8.83;;;2.37;;
21038;SDS011;10678;51.002;4.786;2022-12-28T00:36:27;10.43;;;3.10;;
21038;SDS011;10678;51.002;4.786;2022-12-28T00:38:53;7.70;;;2.20;;
21038;SDS011;10678;51.002;4.786;2022-12-28T00:41:19;9.47;;;3.10;;
21038;SDS011;10678;51.002;4.786;2022-12-28T00:43:44;8.33;;;3.20;;
21038;SDS011;10678;51.002;4.786;2022-12-28T00:46:10;11.13;;;2.67;;
21038;SDS011;10678;51.002;4.786;2022-12-28T00:48:36;8.67;;;2.57;;
21038;SDS011;10678;51.002;4.786;2022-12-28T00:51:14;8.27;;;2.43;;
21038;SDS011;10678;51.002;4.786;2022-12-28T00:53:41;6.73;;;2.17;;
21038;SDS011;10678;51.002;4.786;2022-12-28T00:56:11;6.37;;;2.37;;
21038;SDS011;10678;51.002;4.786;2022-12-28T00:58:38;9.23;;;2.50;;
21038;SDS011;10678;51.002;4.786;2022-12-28T01:01:04;11.03;;;2.70;;
21038;SDS011;10678;51.002;4.786;2022-12-28T01:03:34;5.43;;;2.23;;
21038;SDS011;10678;51.002;4.786;2022-12-28T01:06:03;7.33;;;2.70;;
21038;SDS011;10678;51.002;4.786;2022-12-28T01:08:34;6.70;;;2.10;;
21038;SDS011;10678;51.002;4.786;2022-12-28T01:11:07;6.53;;;2.60;;
21038;SDS011;10678;51.002;4.786;2022-12-28T01:13:37;5.80;;;2.50;;
21038;SDS011;10678;51.002;4.786;2022-12-28T01:16:10;7.77;;;2.53;;
21038;SDS011;10678;51.002;4.786;2022-12-28T01:18:40;6.57;;;2.40;;
21038;SDS011;10678;51.002;4.786;2022-12-28T01:21:07;7.20;;;2.57;;
21038;SDS011;10678;51.002;4.786;2022-12-28T01:23:37;8.83;;;2.77;;
21038;SDS011;10678;51.002;4.786;2022-12-28T01:26:03;7.60;;;2.80;;
21038;SDS011;10678;51.002;4.786;2022-12-28T01:28:29;5.13;;;2.30;;
21038;SDS011;10678;51.002;4.786;2022-12-28T01:30:54;6.40;;;2.60;;
21038;SDS011;10678;51.002;4.786;2022-12-28T01:33:20;10.43;;;3.00;;
21038;SDS011;10678;51.002;4.786;2022-12-28T01:35:45;9.07;;;2.97;;
21038;SDS011;10678;51.002;4.786;2022-12-28T01:38:11;6.10;;;2.63;;
21038;SDS011;10678;51.002;4.786;2022-12-28T01:40:37;6.77;;;2.90;;
21038;SDS011;10678;51.002;4.786;2022-12-28T01:43:10;8.40;;;2.57;;
21038;SDS011;10678;51.002;4.786;2022-12-28T01:45:38;11.80;;;3.40;;
21038;SDS011;10678;51.002;4.786;2022-12-28T01:48:04;7.37;;;2.50;;
21038;SDS011;10678;51.002;4.786;2022-12-28T01:50:40;7.03;;;2.67;;
21038;SDS011;10678;51.002;4.786;2022-12-28T01:53:07;6.20;;;2.47;;
21038;SDS011;10678;51.002;4.786;2022-12-28T01:55:33;7.47;;;2.70;;
21038;SDS011;10678;51.002;4.786;2022-12-28T01:58:12;6.30;;;2.67;;
21038;SDS011;10678;51.002;4.786;2022-12-28T02:00:44;5.97;;;2.77;;
21038;SDS011;10678;51.002;4.786;2022-12-28T02:03:13;7.33;;;2.70;;
21038;SDS011;10678;51.002;4.786;2022-12-28T02:05:47;6.33;;;2.33;;
21038;SDS011;10678;51.002;4.786;2022-12-28T02:11:13;8.10;;;2.67;;
21038;SDS011;10678;51.002;4.786;2022-12-28T02:13:42;6.53;;;2.60;;
21038;SDS011;10678;51.002;4.786;2022-12-28T02:16:10;5.17;;;2.60;;
21038;SDS011;10678;51.002;4.786;2022-12-28T02:18:36;4.93;;;2.10;;
21038;SDS011;10678;51.002;4.786;2022-12-28T02:29:07;5.83;;;2.57;;
21038;SDS011;10678;51.002;4.786;2022-12-28T02:31:59;6.63;;;2.80;;
21038;SDS011;10678;51.002;4.786;2022-12-28T02:37:37;6.83;;;2.80;;
21038;SDS011;10678;51.002;4.786;2022-12-28T02:40:12;7.90;;;3.13;;
21038;SDS011;10678;51.002;4.786;2022-12-28T02:42:42;5.93;;;2.93;;
21038;SDS011;10678;51.002;4.786;2022-12-28T02:45:25;9.77;;;2.80;;
21038;SDS011;10678;51.002;4.786;2022-12-28T02:48:18;8.73;;;3.20;;
21038;SDS011;10678;51.002;4.786;2022-12-28T02:57:59;6.13;;;2.60;;
21038;SDS011;10678;51.002;4.786;2022-12-28T03:00:11;10.23;;;3.17;;
21038;SDS011;10678;51.002;4.786;2022-12-28T03:05:13;6.43;;;2.60;;
21038;SDS011;10678;51.002;4.786;2022-12-28T03:08:08;6.50;;;2.70;;
21038;SDS011;10678;51.002;4.786;2022-12-28T03:13:11;8.30;;;3.10;;
21038;SDS011;10678;51.002;4.786;2022-12-28T03:16:00;7.27;;;2.87;;
21038;SDS011;10678;51.002;4.786;2022-12-28T03:18:31;6.53;;;2.50;;
21038;SDS011;10678;51.002;4.786;2022-12-28T03:21:16;6.63;;;2.43;;
21038;SDS011;10678;51.002;4.786;2022-12-28T03:24:02;7.50;;;2.93;;
21038;SDS011;10678;51.002;4.786;2022-12-28T03:26:49;6.70;;;2.40;;
21038;SDS011;10678;51.002;4.786;2022-12-28T03:29:37;5.67;;;2.43;;
21038;SDS011;10678;51.002;4.786;2022-12-28T03:32:25;6.00;;;2.67;;
21038;SDS011;10678;51.002;4.786;2022-12-28T03:34:51;7.77;;;2.70;;
21038;SDS011;10678;51.002;4.786;2022-12-28T03:37:19;7.43;;;3.03;;
21038;SDS011;10678;51.002;4.786;2022-12-28T03:39:55;8.83;;;3.03;;
21038;SDS011;10678;51.002;4.786;2022-12-28T03:42:38;5.80;;;2.87;;
21038;SDS011;10678;51.002;4.786;2022-12-28T03:48:06;8.67;;;2.33;;
21038;SDS011;10678;51.002;4.786;2022-12-28T03:50:39;7.87;;;2.93;;
21038;SDS011;10678;51.002;4.786;2022-12-28T03:53:08;6.50;;;2.33;;
21038;SDS011;10678;51.002;4.786;2022-12-28T03:55:34;9.80;;;2.40;;
21038;SDS011;10678;51.002;4.786;2022-12-28T03:58:02;9.83;;;2.80;;
21038;SDS011;10678;51.002;4.786;2022-12-28T04:00:29;9.73;;;2.67;;
21038;SDS011;10678;51.002;4.786;2022-12-28T04:02:54;6.30;;;2.20;;
21038;SDS011;10678;51.002;4.786;2022-12-28T04:05:20;14.43;;;3.20;;
21038;SDS011;10678;51.002;4.786;2022-12-28T04:07:46;7.13;;;2.43;;
21038;SDS011;10678;51.002;4.786;2022-12-28T04:10:11;10.40;;;2.97;;
21038;SDS011;10678;51.002;4.786;2022-12-28T04:12:37;7.83;;;2.47;;
21038;SDS011;10678;51.002;4.786;2022-12-28T04:15:03;6.83;;;2.50;;
21038;SDS011;10678;51.002;4.786;2022-12-28T04:17:29;14.57;;;2.60;;
21038;SDS011;10678;51.002;4.786;2022-12-28T04:19:54;9.47;;;3.47;;
21038;SDS011;10678;51.002;4.786;2022-12-28T04:22:20;6.90;;;2.50;;
21038;SDS011;10678;51.002;4.786;2022-12-28T04:24:46;5.93;;;2.37;;
21038;SDS011;10678;51.002;4.786;2022-12-28T04:27:11;6.67;;;2.70;;
21038;SDS011;10678;51.002;4.786;2022-12-28T04:29:37;7.60;;;2.67;;
21038;SDS011;10678;51.002;4.786;2022-12-28T04:32:02;7.93;;;2.90;;
21038;SDS011;10678;51.002;4.786;2022-12-28T04:34:28;7.63;;;2.60;;
21038;SDS011;10678;51.002;4.786;2022-12-28T04:36:54;8.57;;;2.40;;
21038;SDS011;10678;51.002;4.786;2022-12-28T04:39:19;5.70;;;2.45;;
21038;SDS011;10678;51.002;4.786;2022-12-28T04:41:45;9.23;;;2.73;;
21038;SDS011;10678;51.002;4.786;2022-12-28T04:44:10;7.25;;;2.50;;
21038;SDS011;10678;51.002;4.786;2022-12-28T04:46:36;8.07;;;2.20;;
21038;SDS011;10678;51.002;4.786;2022-12-28T04:49:01;8.50;;;2.40;;
21038;SDS011;10678;51.002;4.786;2022-12-28T04:51:28;6.93;;;2.50;;
21038;SDS011;10678;51.002;4.786;2022-12-28T04:53:54;7.57;;;2.70;;
21038;SDS011;10678;51.002;4.786;2022-12-28T04:56:21;9.03;;;2.73;;
21038;SDS011;10678;51.002;4.786;2022-12-28T04:58:51;6.63;;;2.38;;
21038;SDS011;10678;51.002;4.786;2022-12-28T05:01:24;9.73;;;2.87;;
21038;SDS011;10678;51.002;4.786;2022-12-28T05:03:51;7.97;;;2.63;;
21038;SDS011;10678;51.002;4.786;2022-12-28T05:06:18;5.80;;;2.33;;
21038;SDS011;10678;51.002;4.786;2022-12-28T05:08:46;6.10;;;2.60;;
21038;SDS011;10678;51.002;4.786;2022-12-28T05:11:22;6.10;;;2.63;;
21038;SDS011;10678;51.002;4.786;2022-12-28T05:13:50;8.67;;;2.97;;
21038;SDS011;10678;51.002;4.786;2022-12-28T05:16:17;6.90;;;2.47;;
21038;SDS011;10678;51.002;4.786;2022-12-28T05:18:46;5.90;;;2.30;;
21038;SDS011;10678;51.002;4.786;2022-12-28T05:23:42;7.83;;;3.00;;
21038;SDS011;10678;51.002;4.786;2022-12-28T05:26:10;8.00;;;2.67;;
21038;SDS011;10678;51.002;4.786;2022-12-28T05:28:37;8.37;;;3.10;;
21038;SDS011;10678;51.002;4.786;2022-12-28T05:31:04;5.97;;;2.43;;
21038;SDS011;10678;51.002;4.786;2022-12-28T05:33:32;8.37;;;3.10;;
21038;SDS011;10678;51.002;4.786;2022-12-28T05:36:06;6.03;;;2.50;;
21038;SDS011;10678;51.002;4.786;2022-12-28T05:38:34;8.53;;;2.67;;
21038;SDS011;10678;51.002;4.786;2022-12-28T05:41:07;6.43;;;2.03;;
21038;SDS011;10678;51.002;4.786;2022-12-28T05:43:35;6.17;;;2.60;;
21038;SDS011;10678;51.002;4.786;2022-12-28T05:46:04;7.63;;;2.50;;
21038;SDS011;10678;51.002;4.786;2022-12-28T05:48:32;12.20;;;3.13;;
21038;SDS011;10678;51.002;4.786;2022-12-28T05:51:00;7.30;;;2.40;;
21038;SDS011;10678;51.002;4.786;2022-12-28T05:53:27;7.40;;;2.70;;
21038;SDS011;10678;51.002;4.786;2022-12-28T05:55:59;6.33;;;2.30;;
21038;SDS011;10678;51.002;4.786;2022-12-28T05:58:25;7.10;;;2.60;;
21038;SDS011;10678;51.002;4.786;2022-12-28T06:00:51;7.47;;;2.37;;
21038;SDS011;10678;51.002;4.786;2022-12-28T06:03:17;5.10;;;2.30;;
21038;SDS011;10678;51.002;4.786;2022-12-28T06:05:42;7.53;;;2.47;;
21038;SDS011;10678;51.002;4.786;2022-12-28T06:08:08;7.70;;;2.20;;
21038;SDS011;10678;51.002;4.786;2022-12-28T06:10:33;7.97;;;2.17;;
21038;SDS011;10678;51.002;4.786;2022-12-28T06:13:00;6.40;;;2.20;;
21038;SDS011;10678;51.002;4.786;2022-12-28T06:15:25;6.57;;;2.13;;
21038;SDS011;10678;51.002;4.786;2022-12-28T06:17:51;10.77;;;2.47;;
21038;SDS011;10678;51.002;4.786;2022-12-28T06:20:17;6.63;;;2.20;;
21038;SDS011;10678;51.002;4.786;2022-12-28T06:22:43;8.37;;;1.87;;
21038;SDS011;10678;51.002;4.786;2022-12-28T06:25:08;4.97;;;1.87;;
21038;SDS011;10678;51.002;4.786;2022-12-28T06:27:34;13.03;;;2.80;;
21038;SDS011;10678;51.002;4.786;2022-12-28T06:29:59;7.47;;;2.07;;
21038;SDS011;10678;51.002;4.786;2022-12-28T06:32:25;5.07;;;2.20;;
21038;SDS011;10678;51.002;4.786;2022-12-28T06:34:51;9.67;;;2.77;;
21038;SDS011;10678;51.002;4.786;2022-12-28T06:37:16;7.20;;;2.53;;
21038;SDS011;10678;51.002;4.786;2022-12-28T06:39:42;6.22;;;2.35;;
21038;SDS011;10678;51.002;4.786;2022-12-28T06:42:07;5.20;;;2.30;;
21038;SDS011;10678;51.002;4.786;2022-12-28T06:44:33;7.53;;;2.40;;
21038;SDS011;10678;51.002;4.786;2022-12-28T06:46:58;6.00;;;2.60;;
21038;SDS011;10678;51.002;4.786;2022-12-28T06:49:24;7.10;;;2.97;;
21038;SDS011;10678;51.002;4.786;2022-12-28T06:51:50;10.00;;;2.47;;
21038;SDS011;10678;51.002;4.786;2022-12-28T06:54:15;9.77;;;2.80;;
21038;SDS011;10678;51.002;4.786;2022-12-28T06:56:41;8.23;;;2.30;;
21038;SDS011;10678;51.002;4.786;2022-12-28T06:59:06;8.43;;;3.17;;
21038;SDS011;10678;51.002;4.786;2022-12-28T07:01:33;8.37;;;2.60;;
21038;SDS011;10678;51.002;4.786;2022-12-28T07:04:01;8.50;;;2.70;;
21038;SDS011;10678;51.002;4.786;2022-12-28T07:06:32;8.63;;;2.87;;
21038;SDS011;10678;51.002;4.786;2022-12-28T07:09:00;8.10;;;2.73;;
21038;SDS011;10678;51.002;4.786;2022-12-28T07:11:28;9.00;;;2.60;;
21038;SDS011;10678;51.002;4.786;2022-12-28T07:13:54;8.30;;;2.33;;
21038;SDS011;10678;51.002;4.786;2022-12-28T07:16:21;9.47;;;2.90;;
21038;SDS011;10678;51.002;4.786;2022-12-28T07:18:47;9.93;;;2.70;;
21038;SDS011;10678;51.002;4.786;2022-12-28T07:21:17;10.67;;;2.70;;
21038;SDS011;10678;51.002;4.786;2022-12-28T07:23:46;7.07;;;2.30;;
21038;SDS011;10678;51.002;4.786;2022-12-28T07:26:13;10.13;;;2.30;;
21038;SDS011;10678;51.002;4.786;2022-12-28T07:28:41;7.87;;;2.17;;
21038;SDS011;10678;51.002;4.786;2022-12-28T07:31:12;13.57;;;2.80;;
21038;SDS011;10678;51.002;4.786;2022-12-28T07:33:40;13.40;;;2.70;;
21038;SDS011;10678;51.002;4.786;2022-12-28T07:36:07;13.02;;;2.80;;
21038;SDS011;10678;51.002;4.786;2022-12-28T07:38:34;10.70;;;2.37;;
21038;SDS011;10678;51.002;4.786;2022-12-28T07:41:01;9.07;;;2.60;;
21038;SDS011;10678;51.002;4.786;2022-12-28T07:43:31;8.93;;;2.35;;
21038;SDS011;10678;51.002;4.786;2022-12-28T07:48:28;8.00;;;2.60;;
21038;SDS011;10678;51.002;4.786;2022-12-28T07:50:55;8.85;;;1.88;;
21038;SDS011;10678;51.002;4.786;2022-12-28T07:53:21;11.63;;;2.37;;
21038;SDS011;10678;51.002;4.786;2022-12-28T07:55:56;6.72;;;2.20;;
21038;SDS011;10678;51.002;4.786;2022-12-28T07:58:22;7.07;;;2.20;;
21038;SDS011;10678;51.002;4.786;2022-12-28T08:00:48;5.97;;;2.03;;
21038;SDS011;10678;51.002;4.786;2022-12-28T08:03:14;6.38;;;2.03;;
21038;SDS011;10678;51.002;4.786;2022-12-28T08:05:41;7.70;;;2.10;;
21038;SDS011;10678;51.002;4.786;2022-12-28T08:08:06;9.17;;;2.27;;
21038;SDS011;10678;51.002;4.786;2022-12-28T08:10:32;8.37;;;1.97;;
21038;SDS011;10678;51.002;4.786;2022-12-28T08:12:59;5.47;;;1.93;;
21038;SDS011;10678;51.002;4.786;2022-12-28T08:15:25;6.20;;;2.30;;
21038;SDS011;10678;51.002;4.786;2022-12-28T08:17:52;9.15;;;2.63;;
21038;SDS011;10678;51.002;4.786;2022-12-28T08:20:18;6.13;;;2.20;;
21038;SDS011;10678;51.002;4.786;2022-12-28T08:22:44;4.70;;;1.63;;
21038;SDS011;10678;51.002;4.786;2022-12-28T08:25:10;6.85;;;1.83;;
21038;SDS011;10678;51.002;4.786;2022-12-28T08:27:35;6.30;;;1.80;;
21038;SDS011;10678;51.002;4.786;2022-12-28T08:30:01;5.35;;;1.73;;
21038;SDS011;10678;51.002;4.786;2022-12-28T08:32:27;5.33;;;1.90;;
21038;SDS011;10678;51.002;4.786;2022-12-28T08:34:52;6.17;;;2.40;;
21038;SDS011;10678;51.002;4.786;2022-12-28T08:37:18;4.43;;;1.75;;
21038;SDS011;10678;51.002;4.786;2022-12-28T08:39:43;9.27;;;2.53;;
21038;SDS011;10678;51.002;4.786;2022-12-28T08:42:09;6.85;;;2.30;;
21038;SDS011;10678;51.002;4.786;2022-12-28T08:44:34;5.85;;;2.22;;
21038;SDS011;10678;51.002;4.786;2022-12-28T08:47:00;5.72;;;2.30;;
21038;SDS011;10678;51.002;4.786;2022-12-28T08:49:25;5.97;;;2.03;;
21038;SDS011;10678;51.002;4.786;2022-12-28T08:51:51;4.22;;;2.05;;
21038;SDS011;10678;51.002;4.786;2022-12-28T08:54:17;6.60;;;2.47;;
21038;SDS011;10678;51.002;4.786;2022-12-28T08:56:44;5.00;;;2.50;;
21038;SDS011;10678;51.002;4.786;2022-12-28T08:59:12;6.90;;;2.60;;
21038;SDS011;10678;51.002;4.786;2022-12-28T09:01:39;8.10;;;2.70;;
21038;SDS011;10678;51.002;4.786;2022-12-28T09:04:04;10.77;;;2.60;;
21038;SDS011;10678;51.002;4.786;2022-12-28T09:06:35;7.67;;;2.30;;
21038;SDS011;10678;51.002;4.786;2022-12-28T09:09:03;5.90;;;2.50;;
21038;SDS011;10678;51.002;4.786;2022-12-28T09:11:31;5.68;;;2.40;;
21038;SDS011;10678;51.002;4.786;2022-12-28T09:13:57;6.40;;;2.47;;
21038;SDS011;10678;51.002;4.786;2022-12-28T09:16:24;8.15;;;2.58;;
21038;SDS011;10678;51.002;4.786;2022-12-28T09:18:55;9.03;;;2.80;;
21038;SDS011;10678;51.002;4.786;2022-12-28T09:21:24;9.13;;;3.30;;
21038;SDS011;10678;51.002;4.786;2022-12-28T09:23:51;6.13;;;2.70;;
21038;SDS011;10678;51.002;4.786;2022-12-28T09:26:18;9.18;;;2.53;;
21038;SDS011;10678;51.002;4.786;2022-12-28T09:28:46;12.13;;;2.67;;
21038;SDS011;10678;51.002;4.786;2022-12-28T09:31:15;8.20;;;2.50;;
21038;SDS011;10678;51.002;4.786;2022-12-28T09:33:42;10.60;;;3.40;;
21038;SDS011;10678;51.002;4.786;2022-12-28T09:36:23;8.65;;;2.58;;
21038;SDS011;10678;51.002;4.786;2022-12-28T09:38:51;8.88;;;2.90;;
21038;SDS011;10678;51.002;4.786;2022-12-28T09:47:10;5.47;;;2.67;;
21038;SDS011;10678;51.002;4.786;2022-12-28T09:55:30;8.67;;;2.70;;
21038;SDS011;10678;51.002;4.786;2022-12-28T09:57:58;8.17;;;2.77;;
21038;SDS011;10678;51.002;4.786;2022-12-28T10:00:26;9.53;;;2.63;;
21038;SDS011;10678;51.002;4.786;2022-12-28T10:05:47;7.17;;;2.43;;
21038;SDS011;10678;51.002;4.786;2022-12-28T10:08:15;8.32;;;2.40;;
21038;SDS011;10678;51.002;4.786;2022-12-28T10:10:43;10.55;;;2.75;;
21038;SDS011;10678;51.002;4.786;2022-12-28T10:13:16;6.03;;;2.37;;
21038;SDS011;10678;51.002;4.786;2022-12-28T10:15:44;8.00;;;2.13;;
21038;SDS011;10678;51.002;4.786;2022-12-28T10:18:12;9.27;;;2.35;;
21038;SDS011;10678;51.002;4.786;2022-12-28T10:20:39;14.15;;;3.00;;
21038;SDS011;10678;51.002;4.786;2022-12-28T10:23:10;10.48;;;2.70;;
21038;SDS011;10678;51.002;4.786;2022-12-28T10:25:40;10.25;;;2.47;;
21038;SDS011;10678;51.002;4.786;2022-12-28T10:28:06;11.65;;;2.88;;
21038;SDS011;10678;51.002;4.786;2022-12-28T10:30:33;9.93;;;2.30;;
21038;SDS011;10678;51.002;4.786;2022-12-28T10:33:16;7.70;;;1.92;;
21038;SDS011;10678;51.002;4.786;2022-12-28T10:35:50;8.13;;;2.30;;
21038;SDS011;10678;51.002;4.786;2022-12-28T10:38:21;7.15;;;2.05;;
21038;SDS011;10678;51.002;4.786;2022-12-28T10:41:02;8.65;;;2.25;;
21038;SDS011;10678;51.002;4.786;2022-12-28T10:43:40;8.43;;;1.73;;
21038;SDS011;10678;51.002;4.786;2022-12-28T10:46:19;7.70;;;1.95;;
21038;SDS011;10678;51.002;4.786;2022-12-28T10:48:50;11.13;;;1.90;;
21038;SDS011;10678;51.002;4.786;2022-12-28T10:51:18;9.23;;;2.20;;
21038;SDS011;10678;51.002;4.786;2022-12-28T10:53:49;5.88;;;1.88;;
21038;SDS011;10678;51.002;4.786;2022-12-28T10:56:22;6.82;;;1.90;;
21038;SDS011;10678;51.002;4.786;2022-12-28T10:58:50;9.82;;;1.55;;
21038;SDS011;10678;51.002;4.786;2022-12-28T11:01:19;11.48;;;2.05;;
21038;SDS011;10678;51.002;4.786;2022-12-28T11:06:21;5.85;;;1.55;;
21038;SDS011;10678;51.002;4.786;2022-12-28T11:11:44;8.23;;;1.80;;
21038;SDS011;10678;51.002;4.786;2022-12-28T11:17:25;4.25;;;1.48;;
21038;SDS011;10678;51.002;4.786;2022-12-28T11:19:55;7.38;;;1.65;;
21038;SDS011;10678;51.002;4.786;2022-12-28T11:22:27;6.65;;;1.70;;
21038;SDS011;10678;51.002;4.786;2022-12-28T11:24:54;4.05;;;1.25;;
21038;SDS011;10678;51.002;4.786;2022-12-28T11:27:22;7.05;;;1.80;;
21038;SDS011;10678;51.002;4.786;2022-12-28T11:29:49;8.43;;;1.83;;
21038;SDS011;10678;51.002;4.786;2022-12-28T11:32:26;7.70;;;1.88;;
21038;SDS011;10678;51.002;4.786;2022-12-28T11:34:57;4.47;;;1.60;;
21038;SDS011;10678;51.002;4.786;2022-12-28T11:37:23;6.65;;;1.60;;
21038;SDS011;10678;51.002;4.786;2022-12-28T11:39:49;9.77;;;1.88;;
21038;SDS011;10678;51.002;4.786;2022-12-28T11:45:05;8.40;;;2.17;;
21038;SDS011;10678;51.002;4.786;2022-12-28T11:47:40;7.25;;;2.00;;
21038;SDS011;10678;51.002;4.786;2022-12-28T11:52:57;5.45;;;1.50;;
21038;SDS011;10678;51.002;4.786;2022-12-28T11:57:49;4.78;;;1.23;;
21038;SDS011;10678;51.002;4.786;2022-12-28T12:02:47;10.20;;;1.70;;
21038;SDS011;10678;51.002;4.786;2022-12-28T12:10:36;8.02;;;1.92;;
21038;SDS011;10678;51.002;4.786;2022-12-28T12:15:47;10.20;;;1.70;;
21038;SDS011;10678;51.002;4.786;2022-12-28T12:18:21;6.22;;;1.67;;
21038;SDS011;10678;51.002;4.786;2022-12-28T12:20:51;7.45;;;1.40;;
21038;SDS011;10678;51.002;4.786;2022-12-28T12:26:08;11.13;;;1.90;;
21038;SDS011;10678;51.002;4.786;2022-12-28T12:28:52;7.10;;;1.70;;
21038;SDS011;10678;51.002;4.786;2022-12-28T12:31:32;4.93;;;1.40;;
21038;SDS011;10678;51.002;4.786;2022-12-28T12:34:09;8.23;;;1.63;;
21038;SDS011;10678;51.002;4.786;2022-12-28T12:39:39;6.65;;;1.75;;
21038;SDS011;10678;51.002;4.786;2022-12-28T12:50:19;5.57;;;1.58;;
21038;SDS011;10678;51.002;4.786;2022-12-28T12:56:52;8.52;;;1.85;;
21038;SDS011;10678;51.002;4.786;2022-12-28T13:02:33;5.00;;;1.65;;
21038;SDS011;10678;51.002;4.786;2022-12-28T13:05:15;7.70;;;1.58;;
21038;SDS011;10678;51.002;4.786;2022-12-28T13:07:43;7.93;;;1.73;;
21038;SDS011;10678;51.002;4.786;2022-12-28T13:10:14;10.27;;;1.40;;
21038;SDS011;10678;51.002;4.786;2022-12-28T13:12:42;8.43;;;1.70;;
21038;SDS011;10678;51.002;4.786;2022-12-28T13:15:15;7.40;;;1.65;;
21038;SDS011;10678;51.002;4.786;2022-12-28T13:20:28;9.52;;;2.25;;
21038;SDS011;10678;51.002;4.786;2022-12-28T13:22:54;7.85;;;1.75;;
21038;SDS011;10678;51.002;4.786;2022-12-28T13:27:51;7.30;;;1.90;;
21038;SDS011;10678;51.002;4.786;2022-12-28T13:30:18;8.68;;;1.75;;
21038;SDS011;10678;51.002;4.786;2022-12-28T13:33:19;4.45;;;1.73;;
21038;SDS011;10678;51.002;4.786;2022-12-28T13:35:49;6.65;;;1.40;;
21038;SDS011;10678;51.002;4.786;2022-12-28T13:38:15;6.95;;;1.42;;
21038;SDS011;10678;51.002;4.786;2022-12-28T13:40:51;7.05;;;1.95;;
21038;SDS011;10678;51.002;4.786;2022-12-28T13:46:00;8.23;;;2.47;;
21038;SDS011;10678;51.002;4.786;2022-12-28T13:48:31;9.70;;;1.55;;
21038;SDS011;10678;51.002;4.786;2022-12-28T13:50:59;8.07;;;1.30;;
21038;SDS011;10678;51.002;4.786;2022-12-28T13:53:26;5.45;;;1.55;;
21038;SDS011;10678;51.002;4.786;2022-12-28T13:55:56;5.75;;;1.20;;
21038;SDS011;10678;51.002;4.786;2022-12-28T14:01:06;7.40;;;2.13;;
21038;SDS011;10678;51.002;4.786;2022-12-28T14:03:37;6.43;;;1.30;;
21038;SDS011;10678;51.002;4.786;2022-12-28T14:06:04;8.15;;;1.40;;
21038;SDS011;10678;51.002;4.786;2022-12-28T14:08:34;5.38;;;1.60;;
21038;SDS011;10678;51.002;4.786;2022-12-28T14:11:01;7.38;;;1.60;;
21038;SDS011;10678;51.002;4.786;2022-12-28T14:13:29;5.20;;;1.45;;
21038;SDS011;10678;51.002;4.786;2022-12-28T14:15:56;4.13;;;1.20;;
21038;SDS011;10678;51.002;4.786;2022-12-28T14:18:22;7.53;;;1.90;;
21038;SDS011;10678;51.002;4.786;2022-12-28T14:20:50;6.68;;;1.63;;
21038;SDS011;10678;51.002;4.786;2022-12-28T14:23:18;6.30;;;1.48;;
21038;SDS011;10678;51.002;4.786;2022-12-28T14:25:49;4.53;;;1.35;;
21038;SDS011;10678;51.002;4.786;2022-12-28T14:28:25;6.82;;;1.88;;
21038;SDS011;10678;51.002;4.786;2022-12-28T14:30:54;5.22;;;1.13;;
21038;SDS011;10678;51.002;4.786;2022-12-28T14:33:21;6.63;;;1.58;;
21038;SDS011;10678;51.002;4.786;2022-12-28T14:35:50;6.13;;;1.30;;
21038;SDS011;10678;51.002;4.786;2022-12-28T14:38:18;3.97;;;1.42;;
21038;SDS011;10678;51.002;4.786;2022-12-28T14:40:56;4.30;;;1.50;;
21038;SDS011;10678;51.002;4.786;2022-12-28T14:43:27;4.47;;;1.42;;
21038;SDS011;10678;51.002;4.786;2022-12-28T14:45:56;6.75;;;1.60;;
21038;SDS011;10678;51.002;4.786;2022-12-28T14:48:38;7.38;;;1.55;;
21038;SDS011;10678;51.002;4.786;2022-12-28T14:51:20;6.03;;;1.20;;
21038;SDS011;10678;51.002;4.786;2022-12-28T14:56:35;6.00;;;1.23;;
21038;SDS011;10678;51.002;4.786;2022-12-28T14:59:02;5.57;;;1.42;;
21038;SDS011;10678;51.002;4.786;2022-12-28T15:01:41;5.15;;;1.60;;
21038;SDS011;10678;51.002;4.786;2022-12-28T15:04:25;4.65;;;1.63;;
21038;SDS011;10678;51.002;4.786;2022-12-28T15:06:51;4.53;;;1.50;;
21038;SDS011;10678;51.002;4.786;2022-12-28T15:09:17;5.78;;;1.65;;
21038;SDS011;10678;51.002;4.786;2022-12-28T15:11:42;8.05;;;1.58;;
21038;SDS011;10678;51.002;4.786;2022-12-28T15:14:11;6.03;;;1.52;;
21038;SDS011;10678;51.002;4.786;2022-12-28T15:16:37;6.35;;;1.60;;
21038;SDS011;10678;51.002;4.786;2022-12-28T15:19:02;6.63;;;1.55;;
21038;SDS011;10678;51.002;4.786;2022-12-28T15:21:28;6.75;;;1.58;;
21038;SDS011;10678;51.002;4.786;2022-12-28T15:23:54;6.22;;;1.42;;
21038;SDS011;10678;51.002;4.786;2022-12-28T15:26:21;4.63;;;1.40;;
21038;SDS011;10678;51.002;4.786;2022-12-28T15:28:47;5.15;;;1.50;;
21038;SDS011;10678;51.002;4.786;2022-12-28T15:31:14;9.68;;;1.85;;
21038;SDS011;10678;51.002;4.786;2022-12-28T15:33:43;4.93;;;1.70;;
21038;SDS011;10678;51.002;4.786;2022-12-28T15:36:11;10.30;;;2.58;;
21038;SDS011;10678;51.002;4.786;2022-12-28T15:38:38;6.55;;;1.73;;
21038;SDS011;10678;51.002;4.786;2022-12-28T15:41:04;4.57;;;1.70;;
21038;SDS011;10678;51.002;4.786;2022-12-28T15:43:50;3.88;;;1.30;;
21038;SDS011;10678;51.002;4.786;2022-12-28T15:46:15;5.50;;;1.60;;
21038;SDS011;10678;51.002;4.786;2022-12-28T15:48:41;6.97;;;1.63;;
21038;SDS011;10678;51.002;4.786;2022-12-28T15:51:06;4.40;;;1.80;;
21038;SDS011;10678;51.002;4.786;2022-12-28T15:53:32;4.82;;;1.75;;
21038;SDS011;10678;51.002;4.786;2022-12-28T15:55:58;3.50;;;1.25;;
21038;SDS011;10678;51.002;4.786;2022-12-28T15:58:24;3.63;;;1.20;;
21038;SDS011;10678;51.002;4.786;2022-12-28T16:00:50;5.13;;;1.70;;
21038;SDS011;10678;51.002;4.786;2022-12-28T16:03:16;6.55;;;1.42;;
21038;SDS011;10678;51.002;4.786;2022-12-28T16:05:42;4.10;;;1.45;;
21038;SDS011;10678;51.002;4.786;2022-12-28T16:08:07;4.82;;;1.92;;
21038;SDS011;10678;51.002;4.786;2022-12-28T16:10:33;5.80;;;1.98;;
21038;SDS011;10678;51.002;4.786;2022-12-28T16:12:58;4.80;;;1.63;;
21038;SDS011;10678;51.002;4.786;2022-12-28T16:15:24;7.47;;;1.70;;
21038;SDS011;10678;51.002;4.786;2022-12-28T16:17:50;5.53;;;1.48;;
21038;SDS011;10678;51.002;4.786;2022-12-28T16:20:16;6.07;;;1.75;;
21038;SDS011;10678;51.002;4.786;2022-12-28T16:22:42;4.30;;;1.63;;
21038;SDS011;10678;51.002;4.786;2022-12-28T16:25:07;5.57;;;1.85;;
21038;SDS011;10678;51.002;4.786;2022-12-28T16:27:33;4.25;;;1.65;;
21038;SDS011;10678;51.002;4.786;2022-12-28T16:29:59;6.78;;;1.85;;
21038;SDS011;10678;51.002;4.786;2022-12-28T16:32:25;4.72;;;1.67;;
21038;SDS011;10678;51.002;4.786;2022-12-28T16:34:52;3.83;;;1.45;;
21038;SDS011;10678;51.002;4.786;2022-12-28T16:37:18;2.78;;;1.30;;
21038;SDS011;10678;51.002;4.786;2022-12-28T16:39:44;9.63;;;1.50;;
21038;SDS011;10678;51.002;4.786;2022-12-28T16:42:10;5.28;;;1.75;;
21038;SDS011;10678;51.002;4.786;2022-12-28T16:44:35;6.38;;;1.52;;
21038;SDS011;10678;51.002;4.786;2022-12-28T16:47:01;5.05;;;1.90;;